KDXX

Lac Qui Parle County Airport

Madison, Minnesota, USA
METAR KDXX 201955Z AUTO 01013KT 7SM SCT032 BKN049 24/17 A3002 RMK AO2
Observed Flight Rules
Aug-20 @ 19:55 UTC (34 minutes ago) Visual Flight Rules
Wind Visibility Clouds
10° at 13 knots 7 miles
  • Scattered at 3,200' AGL
  • Broken at 4,900' AGL
Temperatures Readings
Current 24°C / 75°F
Dewpoint 17°C / 63°F
Humidity 65%
Altimeter 30.02" Hg
Pressure 1017 hPa
Elevation 330
METAR KDXX 201955Z AUTO 01013KT 7SM SCT032 BKN049 24/17 A3002 RMK AO2
Observed Flight Rules
Aug-20 @ 19:55 UTC
(34 minutes ago)
VFR
Wind Visibility
10° at 13 knots 7 miles
Clouds
  • Scattered at 3,200' AGL
  • Broken at 4,900' AGL
Temperature Dewpoint
24°C / 75°F 17°C / 63°F
Humidity Altimeter Pressure
65% 30.02" Hg 1017 hPa